Time;durP1;ratioP1;P1;durP2;ratioP2;P2;SDS_P1;SDS_P2;PMS_P1;PMS_P2;Temp;Humidity;BMP_temperature;BMP_pressure;BME280_temperature;BME280_humidity;BME280_pressure;Samples;Min_cycle;Max_cycle;Signal;HPM_P1;HPM_P2
2023/04/19 00:01:10;;;;;;;1.58;1.40;;;16.50;96.70;;;;;;4963799;28;20039;-70
2023/04/19 00:03:38;;;;;;;3.80;1.88;;;16.50;96.70;;;;;;4963104;28;20047;-70
2023/04/19 00:06:07;;;;;;;2.88;1.70;;;16.50;96.70;;;;;;4962296;28;20137;-70
2023/04/19 00:08:34;;;;;;;3.22;2.08;;;16.30;96.70;;;;;;4960750;28;20050;-70
2023/04/19 00:11:04;;;;;;;2.30;1.77;;;16.20;96.70;;;;;;4962371;28;20557;-70
2023/04/19 00:13:31;;;;;;;2.05;1.80;;;16.30;96.70;;;;;;4963176;28;20039;-69
2023/04/19 00:15:59;;;;;;;2.90;1.92;;;16.20;96.70;;;;;;4962818;28;20053;-70
2023/04/19 00:18:27;;;;;;;2.10;1.52;;;16.20;96.70;;;;;;4963039;28;20042;-70
2023/04/19 00:20:55;;;;;;;1.73;1.48;;;16.00;96.70;;;;;;4963621;28;20049;-70
2023/04/19 00:23:24;;;;;;;2.50;1.83;;;15.90;96.70;;;;;;4961973;28;20795;-70
2023/04/19 00:25:52;;;;;;;1.90;1.50;;;15.90;96.70;;;;;;4962705;28;20067;-70
2023/04/19 00:28:21;;;;;;;1.92;1.52;;;15.90;96.70;;;;;;4959919;28;20066;-70
2023/04/19 00:30:49;;;;;;;3.92;1.60;;;16.00;96.70;;;;;;4963085;28;20034;-70
2023/04/19 00:33:17;;;;;;;3.10;1.70;;;15.80;96.70;;;;;;4958489;28;20054;-70
2023/04/19 00:35:44;;;;;;;1.55;1.45;;;15.90;96.70;;;;;;4945376;28;20381;-70
2023/04/19 00:38:12;;;;;;;2.17;1.70;;;15.90;96.70;;;;;;4945776;28;20133;-70
2023/04/19 00:40:45;;;;;;;1.90;1.60;;;15.80;96.70;;;;;;4946593;28;20046;-70
2023/04/19 00:43:17;;;;;;;4.38;1.58;;;15.70;96.70;;;;;;4983211;28;20047;-70
2023/04/19 00:45:48;;;;;;;3.13;1.60;;;15.70;96.70;;;;;;4963548;28;20054;-70
2023/04/19 00:48:18;;;;;;;3.17;1.90;;;15.70;96.70;;;;;;4967172;28;20039;-70
2023/04/19 00:50:46;;;;;;;3.63;1.88;;;15.70;96.70;;;;;;4966260;28;20042;-70
2023/04/19 00:53:14;;;;;;;1.95;1.50;;;15.70;96.70;;;;;;4949153;28;20046;-70
2023/04/19 00:55:42;;;;;;;1.80;1.20;;;15.70;96.70;;;;;;4945749;28;20078;-70
2023/04/19 00:58:10;;;;;;;2.20;1.40;;;15.70;96.70;;;;;;4962648;28;20058;-69
2023/04/19 01:00:38;;;;;;;2.85;1.80;;;15.70;96.70;;;;;;4966973;28;20509;-70
2023/04/19 01:03:07;;;;;;;2.45;1.75;;;15.20;96.70;;;;;;4965249;28;20043;-70
2023/04/19 01:05:36;;;;;;;2.38;2.00;;;15.30;96.70;;;;;;4961728;28;20062;-70
2023/04/19 01:08:04;;;;;;;3.45;1.85;;;15.30;96.70;;;;;;4964912;28;20046;-70
2023/04/19 01:10:32;;;;;;;2.63;1.90;;;15.40;96.70;;;;;;4962668;28;20039;-70
2023/04/19 01:13:00;;;;;;;3.67;1.90;;;15.50;96.70;;;;;;4966894;28;20164;-70
2023/04/19 01:15:28;;;;;;;2.42;2.22;;;15.20;96.70;;;;;;4960033;28;20045;-70
2023/04/19 01:17:56;;;;;;;2.28;1.75;;;15.00;96.70;;;;;;4967247;28;20131;-70
2023/04/19 01:20:25;;;;;;;2.63;2.05;;;14.90;96.70;;;;;;4965092;28;20062;-70
2023/04/19 01:22:55;;;;;;;2.88;1.98;;;15.20;96.70;;;;;;4964972;28;20055;-70
2023/04/19 01:25:22;;;;;;;3.30;2.28;;;15.30;96.70;;;;;;4965639;28;20065;-69
2023/04/19 01:27:50;;;;;;;2.40;1.90;;;15.50;96.70;;;;;;4966974;28;20098;-70
2023/04/19 01:30:18;;;;;;;4.10;1.98;;;15.50;96.70;;;;;;4961146;28;20933;-70
2023/04/19 01:32:46;;;;;;;2.60;1.80;;;15.50;96.70;;;;;;4965267;28;20370;-70
2023/04/19 01:35:14;;;;;;;2.80;2.10;;;15.60;96.70;;;;;;4948602;28;20034;-70
2023/04/19 01:37:43;;;;;;;2.83;1.70;;;15.50;96.70;;;;;;4963944;28;20047;-70
2023/04/19 01:40:14;;;;;;;2.08;1.55;;;15.50;96.70;;;;;;4949550;28;20070;-70
2023/04/19 01:42:42;;;;;;;1.65;1.50;;;15.50;96.70;;;;;;4963135;28;20046;-71
2023/04/19 01:45:10;;;;;;;2.03;1.75;;;15.40;96.70;;;;;;4948377;28;20074;-70
2023/04/19 01:47:38;;;;;;;2.17;1.20;;;15.40;96.70;;;;;;4964465;28;20046;-70
2023/04/19 01:50:07;;;;;;;2.15;1.48;;;15.40;96.70;;;;;;4962178;28;20045;-71
2023/04/19 01:52:35;;;;;;;2.13;1.48;;;15.40;96.70;;;;;;4961783;28;20594;-70
2023/04/19 01:55:05;;;;;;;1.92;1.02;;;15.40;96.70;;;;;;4961949;28;20050;-71
2023/04/19 01:57:36;;;;;;;1.77;1.27;;;15.30;96.70;;;;;;4945272;28;20054;-71
2023/04/19 02:00:05;;;;;;;1.10;0.98;;;15.50;96.70;;;;;;4949199;28;20052;-71
2023/04/19 02:02:40;;;;;;;2.22;1.23;;;15.60;96.70;;;;;;4963986;28;20051;-71
2023/04/19 02:05:09;;;;;;;2.70;1.48;;;15.20;96.70;;;;;;4962208;28;20517;-71
2023/04/19 02:07:37;;;;;;;2.03;1.38;;;14.50;96.70;;;;;;4959278;28;20035;-71
2023/04/19 02:10:08;;;;;;;1.45;1.17;;;14.50;96.70;;;;;;4941793;28;20054;-71
2023/04/19 02:12:38;;;;;;;1.52;1.40;;;14.60;96.70;;;;;;4959735;28;20752;-71
2023/04/19 02:15:07;;;;;;;2.35;1.92;;;14.80;96.70;;;;;;4966964;28;20451;-70
2023/04/19 02:17:35;;;;;;;2.65;1.73;;;14.80;96.70;;;;;;4960890;28;20047;-70
2023/04/19 02:20:05;;;;;;;6.22;2.20;;;14.80;96.70;;;;;;4965428;28;20515;-70
2023/04/19 02:22:32;;;;;;;2.05;1.63;;;14.90;96.70;;;;;;4966240;28;20097;-70
2023/04/19 02:25:01;;;;;;;3.28;1.67;;;14.70;96.70;;;;;;4960596;28;20412;-70
2023/04/19 02:27:30;;;;;;;3.15;2.00;;;14.80;96.70;;;;;;4960349;28;20058;-70
2023/04/19 02:30:00;;;;;;;2.10;1.60;;;14.90;96.70;;;;;;4961358;28;20051;-70
2023/04/19 02:32:33;;;;;;;3.80;1.95;;;14.80;96.70;;;;;;4962754;28;20055;-70
2023/04/19 02:35:02;;;;;;;2.60;1.55;;;14.90;96.70;;;;;;4962588;28;20397;-70
2023/04/19 02:37:29;;;;;;;2.25;1.58;;;15.00;96.70;;;;;;4977316;28;20042;-70
2023/04/19 02:39:58;;;;;;;2.55;1.65;;;15.10;96.70;;;;;;4960609;28;20046;-69
2023/04/19 02:42:28;;;;;;;2.30;1.73;;;15.20;96.70;;;;;;4942317;28;20047;-70
2023/04/19 02:44:56;;;;;;;2.58;1.70;;;15.20;96.70;;;;;;4962683;28;20055;-69
2023/04/19 02:47:26;;;;;;;2.72;1.60;;;15.20;96.70;;;;;;4963418;28;20070;-70
2023/04/19 02:49:54;;;;;;;1.98;1.33;;;15.00;96.70;;;;;;4964709;28;20166;-70
2023/04/19 02:52:22;;;;;;;2.00;1.70;;;14.80;96.70;;;;;;4962766;28;20054;-70
2023/04/19 02:54:50;;;;;;;2.00;1.50;;;14.60;96.70;;;;;;4965455;28;20050;-70
2023/04/19 02:57:18;;;;;;;2.80;1.80;;;14.70;96.70;;;;;;4960819;28;20039;-71
2023/04/19 02:59:47;;;;;;;2.40;1.52;;;14.80;96.70;;;;;;4965815;28;20831;-71
2023/04/19 03:02:15;;;;;;;2.30;1.73;;;14.80;96.70;;;;;;4961439;28;20042;-70
2023/04/19 03:04:46;;;;;;;2.25;1.65;;;15.00;96.70;;;;;;4961569;28;20109;-70
2023/04/19 03:07:15;;;;;;;2.38;1.80;;;15.00;96.70;;;;;;4962873;28;20097;-71
2023/04/19 03:09:43;;;;;;;2.38;1.70;;;15.00;96.70;;;;;;4962056;28;20485;-69
2023/04/19 03:12:11;;;;;;;1.95;1.38;;;15.00;96.70;;;;;;4964603;28;20573;-69
2023/04/19 03:14:39;;;;;;;2.15;1.50;;;15.00;96.70;;;;;;4963142;28;20113;-70
2023/04/19 03:17:15;;;;;;;4.47;1.52;;;15.00;96.70;;;;;;4963059;28;20417;-69
2023/04/19 03:19:46;;;;;;;2.40;1.70;;;14.90;96.70;;;;;;4977491;28;20153;-70
2023/04/19 03:22:15;;;;;;;2.15;1.58;;;14.80;96.70;;;;;;4962354;28;20050;-70
2023/04/19 03:24:43;;;;;;;4.38;1.88;;;14.70;96.70;;;;;;4962891;28;20046;-70
2023/04/19 03:27:18;;;;;;;4.18;1.80;;;14.60;96.70;;;;;;4962854;28;20030;-70
2023/04/19 03:29:51;;;;;;;3.17;1.90;;;14.70;96.70;;;;;;4964789;28;20130;-70
2023/04/19 03:32:20;;;;;;;3.72;1.83;;;14.60;96.70;;;;;;4962854;28;20128;-70
2023/04/19 03:34:49;;;;;;;2.55;1.90;;;14.60;96.70;;;;;;4962844;28;20043;-70
2023/04/19 03:37:17;;;;;;;2.20;1.65;;;14.50;96.70;;;;;;4979628;28;20125;-70
2023/04/19 03:39:46;;;;;;;2.20;1.73;;;14.40;96.70;;;;;;4963258;28;20050;-70
2023/04/19 03:42:22;;;;;;;4.63;3.10;;;14.40;96.70;;;;;;4962519;28;20042;-70
2023/04/19 03:45:04;;;;;;;4.72;2.80;;;14.20;96.70;;;;;;4979706;28;20042;-69
2023/04/19 03:47:35;;;;;;;3.47;2.67;;;14.30;96.70;;;;;;4981867;28;20055;-70
2023/04/19 03:50:06;;;;;;;3.17;2.45;;;14.30;96.70;;;;;;4962686;28;20043;-70
2023/04/19 03:52:37;;;;;;;4.43;2.45;;;14.30;96.70;;;;;;4961175;28;20082;-70
2023/04/19 03:55:06;;;;;;;4.50;2.67;;;14.20;96.70;;;;;;4961488;28;20055;-70
2023/04/19 03:57:39;;;;;;;5.20;2.40;;;14.20;96.70;;;;;;4962392;28;20084;-71
2023/04/19 04:00:20;;;;;;;3.75;2.13;;;14.20;96.70;;;;;;4963355;28;20043;-70
2023/04/19 04:02:55;;;;;;;2.90;1.92;;;14.30;96.70;;;;;;4960493;28;20049;-71
2023/04/19 04:05:26;;;;;;;2.47;1.90;;;14.20;96.70;;;;;;4944586;28;20050;-71
2023/04/19 04:07:56;;;;;;;4.28;1.70;;;14.20;96.70;;;;;;4963062;28;20069;-71
2023/04/19 04:10:26;;;;;;;3.35;2.15;;;14.00;96.70;;;;;;4962009;28;20074;-70
2023/04/19 04:12:54;;;;;;;3.00;2.00;;;14.20;96.70;;;;;;4962288;28;20055;-71
2023/04/19 04:15:34;;;;;;;2.45;1.73;;;14.20;96.70;;;;;;4962785;28;20901;-73
2023/04/19 04:18:04;;;;;;;2.58;2.10;;;14.30;96.70;;;;;;4945879;28;20392;-71
2023/04/19 04:20:38;;;;;;;3.40;1.98;;;14.40;96.70;;;;;;4965692;28;20047;-71
2023/04/19 04:23:10;;;;;;;3.75;1.95;;;14.20;96.70;;;;;;4964910;28;20056;-71
2023/04/19 04:25:45;;;;;;;2.95;2.00;;;14.20;96.70;;;;;;4967841;28;20607;-71
2023/04/19 04:28:14;;;;;;;3.53;1.88;;;14.20;96.70;;;;;;4962800;28;20051;-71
2023/04/19 04:30:44;;;;;;;3.70;2.00;;;14.20;96.70;;;;;;4967179;28;20504;-72
2023/04/19 04:33:13;;;;;;;4.53;2.58;;;14.10;96.70;;;;;;4949717;28;20054;-71
2023/04/19 04:35:44;;;;;;;2.28;1.60;;;13.90;96.70;;;;;;4972285;28;20451;-70
2023/04/19 04:38:18;;;;;;;2.03;1.58;;;14.00;96.70;;;;;;4963294;28;20043;-71
2023/04/19 04:40:53;;;;;;;1.77;1.60;;;14.20;96.70;;;;;;4949395;28;20046;-71
2023/04/19 04:43:22;;;;;;;2.92;1.70;;;14.20;96.70;;;;;;4965961;28;20050;-71
2023/04/19 04:45:50;;;;;;;4.07;1.85;;;14.30;96.70;;;;;;4966558;28;20061;-71
2023/04/19 04:48:19;;;;;;;3.50;1.73;;;14.40;96.70;;;;;;4966038;28;20075;-71
2023/04/19 04:50:49;;;;;;;4.63;1.85;;;14.40;96.70;;;;;;4966090;28;20038;-71
2023/04/19 04:53:17;;;;;;;2.83;1.67;;;14.40;96.70;;;;;;4965302;28;20134;-71
2023/04/19 04:55:46;;;;;;;5.10;1.90;;;14.30;96.70;;;;;;4965462;28;20071;-71
2023/04/19 04:58:14;;;;;;;4.32;1.90;;;14.20;96.70;;;;;;4965836;28;20058;-70
2023/04/19 05:01:03;;;;;;;4.30;1.80;;;14.20;96.70;;;;;;4965187;28;20054;-71
2023/04/19 05:03:36;;;;;;;2.58;1.80;;;14.20;96.70;;;;;;4965577;28;20067;-71
2023/04/19 05:06:10;;;;;;;2.92;2.03;;;14.20;96.70;;;;;;4989160;28;20054;-71
2023/04/19 05:08:38;;;;;;;2.78;1.80;;;14.40;96.70;;;;;;4963801;28;20045;-71
2023/04/19 05:11:18;;;;;;;2.22;1.63;;;14.40;96.70;;;;;;4964775;28;20412;-71
2023/04/19 05:13:47;;;;;;;3.15;2.00;;;14.20;96.70;;;;;;4962494;28;20132;-70
2023/04/19 05:16:15;;;;;;;6.53;1.98;;;14.30;96.70;;;;;;4975832;28;20061;-71
2023/04/19 05:18:45;;;;;;;4.57;2.15;;;14.20;96.70;;;;;;4949407;28;20054;-70
2023/04/19 05:21:15;;;;;;;2.72;1.73;;;14.00;96.70;;;;;;4965392;28;20046;-70
2023/04/19 05:23:43;;;;;;;4.40;2.17;;;14.00;96.70;;;;;;4964668;28;20058;-72
2023/04/19 05:26:14;;;;;;;3.17;1.80;;;14.10;96.70;;;;;;4964331;28;20049;-71
2023/04/19 05:28:43;;;;;;;2.60;1.85;;;14.20;96.70;;;;;;4964734;28;20054;-71
2023/04/19 05:31:27;;;;;;;3.58;1.92;;;14.40;96.70;;;;;;4950061;28;20137;-71
2023/04/19 05:34:08;;;;;;;3.85;2.58;;;14.60;96.70;;;;;;4963593;28;20555;-71
2023/04/19 05:36:38;;;;;;;3.60;2.45;;;14.60;96.70;;;;;;4960411;28;20059;-71
2023/04/19 05:39:28;;;;;;;5.15;2.58;;;14.70;96.70;;;;;;4962988;28;20054;-70
2023/04/19 05:41:58;;;;;;;3.95;2.58;;;14.80;96.70;;;;;;4916460;29;20106;-71
2023/04/19 05:44:26;;;;;;;4.15;2.53;;;14.90;96.70;;;;;;4924299;29;20075;-71
2023/04/19 05:46:53;;;;;;;6.63;2.83;;;14.90;96.70;;;;;;4908145;29;20142;-72
2023/04/19 05:49:44;;;;;;;4.82;2.63;;;14.80;96.70;;;;;;4890894;29;20051;-71
2023/04/19 05:52:21;;;;;;;3.85;2.60;;;14.80;96.70;;;;;;4892734;29;20054;-71
2023/04/19 05:54:52;;;;;;;8.52;2.85;;;15.00;96.70;;;;;;4910451;29;20407;-71
2023/04/19 05:57:20;;;;;;;5.47;3.25;;;14.80;96.70;;;;;;4908295;29;20548;-71
2023/04/19 05:59:48;;;;;;;4.40;2.80;;;14.70;96.70;;;;;;4924374;29;20135;-71
2023/04/19 06:02:20;;;;;;;5.35;2.90;;;14.60;96.70;;;;;;4908553;29;20051;-71
2023/04/19 06:04:48;;;;;;;6.78;4.28;;;14.60;96.70;;;;;;4905693;29;20052;-71
2023/04/19 06:07:17;;;;;;;7.28;4.68;;;14.50;96.70;;;;;;4923496;29;20051;-71
2023/04/19 06:10:02;;;;;;;8.70;4.63;;;14.60;96.70;;;;;;4908426;29;20569;-71
2023/04/19 06:12:30;;;;;;;7.38;4.22;;;14.50;96.70;;;;;;4922548;29;20059;-72
2023/04/19 06:14:57;;;;;;;8.68;4.55;;;14.60;96.70;;;;;;4908738;29;20055;-70
2023/04/19 06:17:25;;;;;;;7.15;3.50;;;14.90;96.70;;;;;;4917671;29;20143;-70
2023/04/19 06:19:53;;;;;;;6.85;3.63;;;14.70;96.70;;;;;;4956514;28;20054;-71
2023/04/19 06:22:50;;;;;;;4.68;3.13;;;14.80;96.70;;;;;;4964371;28;20485;-70
2023/04/19 06:25:20;;;;;;;5.57;3.22;;;14.90;96.70;;;;;;4964810;28;20146;-71
2023/04/19 06:27:48;;;;;;;6.55;3.25;;;14.90;96.70;;;;;;4963637;28;20051;-71
2023/04/19 06:30:16;;;;;;;5.28;2.92;;;15.00;96.70;;;;;;4964233;28;20061;-71
2023/04/19 06:32:44;;;;;;;3.35;2.40;;;15.10;96.70;;;;;;4951857;28;20043;-70
2023/04/19 06:35:12;;;;;;;3.50;2.45;;;15.00;96.70;;;;;;4963397;28;20046;-70
2023/04/19 06:37:41;;;;;;;5.75;2.53;;;15.10;96.70;;;;;;4964773;28;20045;-70
2023/04/19 06:40:10;;;;;;;3.95;2.65;;;15.20;96.70;;;;;;4971078;28;20710;-71
2023/04/19 06:42:39;;;;;;;4.25;2.97;;;15.30;96.70;;;;;;4962494;28;20042;-71
2023/04/19 06:45:08;;;;;;;4.10;2.80;;;15.30;96.70;;;;;;4963365;28;20058;-70
2023/04/19 06:47:36;;;;;;;5.35;3.10;;;15.40;96.70;;;;;;4963417;28;20068;-70
2023/04/19 06:50:06;;;;;;;4.57;2.95;;;15.50;96.70;;;;;;4963467;28;20108;-71
2023/04/19 06:52:34;;;;;;;5.22;2.55;;;15.50;96.70;;;;;;4964687;28;20720;-70
2023/04/19 06:55:02;;;;;;;9.43;2.33;;;15.50;96.70;;;;;;4963278;28;20066;-70
2023/04/19 06:57:30;;;;;;;3.40;2.40;;;15.60;96.70;;;;;;4962899;28;20105;-71
2023/04/19 07:00:00;;;;;;;3.53;2.53;;;15.60;96.70;;;;;;4964380;28;20043;-70
2023/04/19 07:02:28;;;;;;;3.83;2.17;;;15.70;96.70;;;;;;4963973;28;20050;-71
2023/04/19 07:04:56;;;;;;;3.30;2.50;;;15.70;96.70;;;;;;4963487;28;20059;-71
2023/04/19 07:07:24;;;;;;;4.55;2.83;;;15.70;96.70;;;;;;4962686;28;20047;-70
2023/04/19 07:09:52;;;;;;;5.05;2.80;;;15.70;96.70;;;;;;4964340;28;20051;-70
2023/04/19 07:12:21;;;;;;;4.30;2.50;;;15.80;96.70;;;;;;4964165;28;20050;-71
2023/04/19 07:14:55;;;;;;;4.70;2.83;;;15.80;96.70;;;;;;4964861;28;20043;-70
2023/04/19 07:17:24;;;;;;;5.28;3.50;;;15.90;96.70;;;;;;4963872;28;20050;-70
2023/04/19 07:19:52;;;;;;;5.22;2.83;;;15.90;96.70;;;;;;4956424;28;20050;-71
2023/04/19 07:22:21;;;;;;;3.28;2.50;;;15.90;96.70;;;;;;4963987;28;20254;-71
2023/04/19 07:24:50;;;;;;;4.85;2.83;;;16.00;96.70;;;;;;4964043;28;20416;-71
2023/04/19 07:27:19;;;;;;;3.25;2.35;;;16.00;96.70;;;;;;4962452;28;20070;-71
2023/04/19 07:29:47;;;;;;;4.20;2.40;;;16.10;96.70;;;;;;4962191;28;20540;-71
2023/04/19 07:32:15;;;;;;;3.97;2.35;;;16.10;96.70;;;;;;4963247;28;20038;-71
2023/04/19 07:34:45;;;;;;;3.28;2.13;;;16.10;96.70;;;;;;4963403;28;20046;-71
2023/04/19 07:37:13;;;;;;;4.00;2.55;;;16.10;96.70;;;;;;4962550;28;20097;-70
2023/04/19 07:39:41;;;;;;;4.10;2.20;;;16.20;96.70;;;;;;4968050;28;20034;-71
2023/04/19 07:42:09;;;;;;;4.40;2.20;;;16.30;96.70;;;;;;4966039;28;20133;-71
2023/04/19 07:44:37;;;;;;;3.75;2.42;;;16.30;96.70;;;;;;4961480;28;20051;-71
2023/04/19 07:47:05;;;;;;;3.22;2.58;;;16.40;96.70;;;;;;4972976;28;20050;-71
2023/04/19 07:49:33;;;;;;;3.13;1.85;;;16.50;96.70;;;;;;4964431;28;20047;-70
2023/04/19 07:52:06;;;;;;;3.22;2.08;;;16.60;96.70;;;;;;4963988;28;20125;-70
2023/04/19 07:54:34;;;;;;;2.17;1.73;;;16.70;96.70;;;;;;4962378;28;20046;-70
2023/04/19 07:57:02;;;;;;;3.40;2.33;;;16.70;96.70;;;;;;4961765;28;20039;-70
2023/04/19 07:59:32;;;;;;;3.65;2.10;;;16.70;96.70;;;;;;4964000;28;20050;-71
2023/04/19 08:02:00;;;;;;;2.97;2.20;;;16.80;96.70;;;;;;4962411;28;20073;-71
2023/04/19 08:04:28;;;;;;;3.72;1.75;;;16.90;96.70;;;;;;4961756;28;20065;-70
2023/04/19 08:06:57;;;;;;;2.40;1.92;;;16.90;96.70;;;;;;4923628;29;20051;-71
2023/04/19 08:09:26;;;;;;;2.25;1.50;;;17.00;96.70;;;;;;4925206;29;20071;-71
2023/04/19 08:11:56;;;;;;;2.33;2.05;;;17.00;96.70;;;;;;4924022;29;20412;-70
2023/04/19 08:14:24;;;;;;;2.95;1.90;;;17.00;96.70;;;;;;4924831;29;20418;-71
2023/04/19 08:17:07;;;;;;;2.85;1.50;;;17.00;96.70;;;;;;4925087;29;20059;-70
2023/04/19 08:19:52;;;;;;;2.63;1.88;;;17.10;96.70;;;;;;4923761;29;20102;-71
2023/04/19 08:22:20;;;;;;;2.45;1.88;;;17.20;96.70;;;;;;4924685;29;20536;-70
2023/04/19 08:24:50;;;;;;;1.98;1.77;;;17.30;96.70;;;;;;4923364;29;20090;-70
2023/04/19 08:27:19;;;;;;;1.50;1.17;;;17.30;96.70;;;;;;4923268;29;20529;-71
2023/04/19 08:29:47;;;;;;;2.03;1.42;;;17.30;96.70;;;;;;4920216;29;20055;-72
2023/04/19 08:32:15;;;;;;;1.67;1.27;;;17.40;96.70;;;;;;4923327;29;20044;-72
2023/04/19 08:34:43;;;;;;;1.70;1.40;;;17.50;96.70;;;;;;4915903;29;20079;-70
2023/04/19 08:37:11;;;;;;;2.15;1.33;;;17.60;96.70;;;;;;4925075;29;20047;-70
2023/04/19 08:39:39;;;;;;;1.60;1.35;;;17.70;96.70;;;;;;4928692;29;20044;-70
2023/04/19 08:42:09;;;;;;;2.47;1.90;;;17.70;96.70;;;;;;4926423;28;20051;-71
2023/04/19 08:45:01;;;;;;;1.70;1.20;;;17.80;96.70;;;;;;4924897;29;20092;-70
2023/04/19 08:47:50;;;;;;;1.95;1.38;;;17.90;96.70;;;;;;4924352;29;20048;-71
2023/04/19 08:50:28;;;;;;;3.78;1.50;;;18.00;96.70;;;;;;4922487;29;20523;-71
2023/04/19 08:53:00;;;;;;;2.30;1.50;;;18.00;96.70;;;;;;4924524;29;20054;-71
2023/04/19 08:55:47;;;;;;;2.22;1.63;;;18.10;96.70;;;;;;4924860;29;20075;-71
2023/04/19 08:58:36;;;;;;;2.13;1.58;;;18.20;96.70;;;;;;4924163;29;20047;-71
2023/04/19 09:01:09;;;;;;;1.90;1.33;;;18.10;96.70;;;;;;4923234;29;20077;-71
2023/04/19 09:03:53;;;;;;;2.75;1.48;;;18.20;96.70;;;;;;4924393;29;20134;-70
2023/04/19 09:06:36;;;;;;;3.65;1.48;;;18.40;96.70;;;;;;4953651;28;20069;-70
2023/04/19 09:09:15;;;;;;;2.47;1.75;;;18.60;96.70;;;;;;4966080;28;20039;-70
2023/04/19 09:11:46;;;;;;;3.75;2.35;;;18.60;96.70;;;;;;4964920;28;20058;-70
2023/04/19 09:14:18;;;;;;;6.70;5.95;;;18.60;96.70;;;;;;4964406;28;20050;-70
2023/04/19 09:16:46;;;;;;;12.65;11.32;;;18.70;96.70;;;;;;4958402;28;20053;-70
2023/04/19 09:19:17;;;;;;;2.53;2.30;;;18.80;96.70;;;;;;4964657;28;20615;-70
2023/04/19 09:21:52;;;;;;;15.10;13.60;;;18.90;96.70;;;;;;4964910;28;20057;-70
2023/04/19 09:24:37;;;;;;;6.80;6.10;;;19.00;96.70;;;;;;4966359;28;20051;-70
2023/04/19 09:27:27;;;;;;;3.42;2.22;;;19.00;96.70;;;;;;4976136;28;20051;-70
2023/04/19 09:30:00;;;;;;;3.22;2.78;;;18.90;96.70;;;;;;4964634;28;20101;-70
2023/04/19 09:32:43;;;;;;;2.35;2.05;;;19.00;96.70;;;;;;4965435;28;20814;-70
2023/04/19 09:35:12;;;;;;;3.25;1.77;;;18.90;96.70;;;;;;4964725;28;20078;-70
2023/04/19 09:37:40;;;;;;;1.88;1.50;;;18.80;96.70;;;;;;4966319;28;20042;-71
2023/04/19 09:40:32;;;;;;;1.77;1.30;;;18.80;96.70;;;;;;4964744;28;20146;-71
2023/04/19 09:43:02;;;;;;;2.50;1.63;;;18.90;96.70;;;;;;4977178;28;20074;-72
2023/04/19 09:45:42;;;;;;;1.45;1.17;;;18.80;96.70;;;;;;4964275;28;20505;-72
2023/04/19 09:48:12;;;;;;;2.95;2.33;;;18.80;96.70;;;;;;4964385;28;20093;-71
2023/04/19 09:50:56;;;;;;;4.32;2.05;;;19.00;96.70;;;;;;4965599;28;20591;-71
2023/04/19 09:53:33;;;;;;;2.28;1.95;;;19.20;96.70;;;;;;4964422;28;20512;-71
2023/04/19 09:56:04;;;;;;;3.42;1.48;;;19.40;96.70;;;;;;4968223;28;20081;-71
2023/04/19 09:58:32;;;;;;;2.45;1.23;;;19.70;96.70;;;;;;4963560;28;20097;-71
2023/04/19 10:01:21;;;;;;;2.65;1.23;;;19.90;96.70;;;;;;4960403;28;20046;-72
2023/04/19 10:03:50;;;;;;;3.20;1.70;;;20.00;96.70;;;;;;4965386;28;20043;-71
2023/04/19 10:06:20;;;;;;;2.22;1.55;;;20.20;96.70;;;;;;4965487;28;20114;-71
2023/04/19 10:08:56;;;;;;;2.95;2.15;;;20.20;96.70;;;;;;4965082;28;20070;-71
2023/04/19 10:11:30;;;;;;;2.58;1.50;;;20.40;96.70;;;;;;4965754;28;20046;-71
2023/04/19 10:14:03;;;;;;;4.00;2.83;;;20.50;96.70;;;;;;4964831;28;20038;-71
2023/04/19 10:16:33;;;;;;;2.47;1.95;;;20.50;96.70;;;;;;4963530;28;20050;-71
2023/04/19 10:19:04;;;;;;;2.15;1.50;;;20.60;96.70;;;;;;4962857;28;20082;-71
2023/04/19 10:21:33;;;;;;;2.95;1.40;;;20.50;96.70;;;;;;4965735;28;20077;-70
2023/04/19 10:24:01;;;;;;;3.30;1.50;;;20.70;96.70;;;;;;4964113;28;20113;-70
2023/04/19 10:26:50;;;;;;;2.05;1.17;;;20.80;96.70;;;;;;4965499;28;20043;-70
2023/04/19 10:29:59;;;;;;;2.00;1.50;;;21.00;96.70;;;;;;4963328;28;20055;-70
2023/04/19 10:32:36;;;;;;;2.80;1.40;;;21.00;96.70;;;;;;4965652;28;20599;-70
2023/04/19 10:35:08;;;;;;;2.95;1.60;;;21.10;96.70;;;;;;4957657;28;20058;-71
2023/04/19 10:37:40;;;;;;;2.72;1.60;;;21.00;96.70;;;;;;4965026;28;20764;-70
2023/04/19 10:40:11;;;;;;;1.23;1.13;;;20.90;96.70;;;;;;4965560;28;20058;-71
2023/04/19 10:43:16;;;;;;;2.75;1.10;;;21.20;96.70;;;;;;4962926;28;20084;-70
2023/04/19 10:45:45;;;;;;;3.40;1.38;;;21.30;96.70;;;;;;4958337;28;20539;-70
2023/04/19 10:48:37;;;;;;;1.70;1.27;;;21.50;96.70;;;;;;4962789;28;20047;-71
2023/04/19 10:51:15;;;;;;;1.60;1.42;;;21.70;96.70;;;;;;4957329;28;20039;-71
2023/04/19 10:53:52;;;;;;;2.40;1.33;;;21.70;96.70;;;;;;4963628;28;20603;-71
2023/04/19 10:56:42;;;;;;;1.80;1.15;;;21.80;96.70;;;;;;4963190;28;20081;-71
2023/04/19 10:59:20;;;;;;;1.30;1.20;;;21.80;96.70;;;;;;4963502;28;20046;-72
2023/04/19 11:01:51;;;;;;;2.05;1.38;;;21.70;96.70;;;;;;4963074;28;20047;-73
2023/04/19 11:04:26;;;;;;;1.42;1.08;;;21.70;96.70;;;;;;4963153;28;20500;-72
2023/04/19 11:07:00;;;;;;;2.00;1.40;;;21.60;96.70;;;;;;4928033;28;20059;-72
2023/04/19 11:09:31;;;;;;;2.28;1.20;;;21.60;96.70;;;;;;4944192;28;20061;-72
2023/04/19 11:12:01;;;;;;;1.88;1.23;;;21.80;96.70;;;;;;4945411;28;20556;-72
2023/04/19 11:14:32;;;;;;;3.50;1.33;;;21.90;96.70;;;;;;4944603;28;20047;-72
2023/04/19 11:17:02;;;;;;;2.38;1.50;;;22.00;96.70;;;;;;4953583;28;20051;-72
2023/04/19 11:19:32;;;;;;;1.38;1.15;;;22.40;96.70;;;;;;4943551;28;20051;-71
2023/04/19 11:22:01;;;;;;;2.00;1.20;;;22.70;96.70;;;;;;4952003;28;20408;-72
2023/04/19 11:24:29;;;;;;;3.00;1.60;;;23.00;96.70;;;;;;4960632;28;20051;-72
2023/04/19 11:26:57;;;;;;;2.72;1.30;;;23.10;96.70;;;;;;4952794;28;20826;-72
2023/04/19 11:29:25;;;;;;;2.55;1.33;;;23.30;96.70;;;;;;4947339;28;20043;-72
2023/04/19 11:31:54;;;;;;;3.22;1.20;;;23.40;96.70;;;;;;4941590;28;20118;-72
2023/04/19 11:34:23;;;;;;;2.47;1.25;;;23.30;96.70;;;;;;4948103;28;20122;-71
2023/04/19 11:36:53;;;;;;;1.23;1.08;;;23.10;96.70;;;;;;4943876;28;20051;-73
2023/04/19 11:39:21;;;;;;;1.83;1.17;;;23.20;96.70;;;;;;4951820;28;20145;-72
2023/04/19 11:41:50;;;;;;;1.58;0.93;;;23.30;96.70;;;;;;4962423;28;20101;-73
2023/04/19 11:44:21;;;;;;;1.70;1.15;;;23.50;96.70;;;;;;4960531;28;20102;-73
2023/04/19 11:47:00;;;;;;;1.38;1.27;;;23.60;96.70;;;;;;4956958;28;20142;-73
2023/04/19 11:49:30;;;;;;;2.55;1.65;;;23.60;96.70;;;;;;4960524;28;20410;-72
2023/04/19 11:52:01;;;;;;;1.52;1.10;;;23.70;96.70;;;;;;4958128;28;20049;-72
2023/04/19 11:54:33;;;;;;;2.63;1.17;;;23.90;96.70;;;;;;4951922;28;20580;-74
2023/04/19 11:57:02;;;;;;;3.72;1.58;;;23.80;96.70;;;;;;4942350;28;20042;-72
2023/04/19 11:59:31;;;;;;;2.33;1.27;;;23.50;96.70;;;;;;4945184;28;20039;-71
2023/04/19 12:02:07;;;;;;;2.47;1.20;;;23.40;96.70;;;;;;4952502;28;20629;-72
2023/04/19 12:04:37;;;;;;;1.65;1.38;;;23.40;96.70;;;;;;4943612;28;20055;-72
2023/04/19 12:07:10;;;;;;;1.75;1.50;;;23.40;96.70;;;;;;4949099;28;20061;-72
2023/04/19 12:09:38;;;;;;;1.50;1.10;;;23.60;96.70;;;;;;4961377;28;20493;-72
2023/04/19 12:12:07;;;;;;;1.25;1.15;;;23.90;96.70;;;;;;4957965;28;20045;-70
2023/04/19 12:14:36;;;;;;;1.75;1.20;;;24.00;96.70;;;;;;4960634;28;20508;-71
2023/04/19 12:17:12;;;;;;;1.20;1.05;;;23.90;96.70;;;;;;4962525;28;20046;-72
2023/04/19 12:19:45;;;;;;;2.05;1.20;;;23.90;96.70;;;;;;4951518;28;20050;-72
2023/04/19 12:22:18;;;;;;;1.77;1.30;;;24.10;96.70;;;;;;4950652;28;20503;-72
2023/04/19 12:24:50;;;;;;;1.33;0.80;;;24.20;96.70;;;;;;4959362;28;20070;-72
2023/04/19 12:27:18;;;;;;;3.92;1.30;;;24.30;96.70;;;;;;4942621;28;20047;-71
2023/04/19 12:29:46;;;;;;;1.08;0.95;;;24.30;96.70;;;;;;4936199;28;20066;-71
2023/04/19 12:32:15;;;;;;;1.25;1.05;;;24.50;96.70;;;;;;4943783;28;20508;-72
2023/04/19 12:34:43;;;;;;;1.45;1.10;;;24.80;96.70;;;;;;4944255;28;20067;-72
2023/04/19 12:37:12;;;;;;;1.67;0.95;;;25.10;96.70;;;;;;4942672;28;20122;-72
2023/04/19 12:39:42;;;;;;;2.17;1.17;;;25.30;96.70;;;;;;4952778;28;20417;-71
2023/04/19 12:42:10;;;;;;;1.23;0.90;;;25.30;96.70;;;;;;4949483;28;20141;-71
2023/04/19 12:44:39;;;;;;;1.02;0.90;;;25.40;96.70;;;;;;4965147;28;20042;-71
2023/04/19 12:47:07;;;;;;;1.67;0.80;;;25.70;96.70;;;;;;4955887;28;20047;-71
2023/04/19 12:49:35;;;;;;;0.73;0.73;;;25.90;96.70;;;;;;4964027;28;20042;-71
2023/04/19 12:52:05;;;;;;;1.00;0.85;;;26.00;96.70;;;;;;4959032;28;20058;-71
2023/04/19 12:54:34;;;;;;;1.48;1.38;;;25.80;96.70;;;;;;4947083;28;20165;-72
2023/04/19 12:57:04;;;;;;;2.75;0.98;;;25.20;96.70;;;;;;4951984;28;20098;-71
2023/04/19 12:59:32;;;;;;;2.03;0.90;;;25.00;96.70;;;;;;4938985;28;20047;-73
2023/04/19 13:02:01;;;;;;;2.25;1.10;;;25.20;96.70;;;;;;4943838;28;20043;-72
2023/04/19 13:04:29;;;;;;;1.40;1.10;;;24.80;96.70;;;;;;4952602;28;20043;-72
2023/04/19 13:06:58;;;;;;;2.35;0.95;;;24.60;96.70;;;;;;4964613;28;20061;-72